sensor_id;sensor_type;location;lat;lon;timestamp;P1;durP1;ratioP1;P2;durP2;ratioP2
65275;SDS011;51875;49.994;14.052;2022-09-03T00:00:15;4.68;;;2.42;;
65275;SDS011;51875;49.994;14.052;2022-09-03T00:01:54;2.80;;;2.10;;
65275;SDS011;51875;49.994;14.052;2022-09-03T00:03:26;5.68;;;2.50;;
65275;SDS011;51875;49.994;14.052;2022-09-03T00:04:50;2.60;;;2.38;;
65275;SDS011;51875;49.994;14.052;2022-09-03T00:06:29;2.72;;;2.30;;
65275;SDS011;51875;49.994;14.052;2022-09-03T00:08:02;6.05;;;2.40;;
65275;SDS011;51875;49.994;14.052;2022-09-03T00:09:46;3.13;;;2.05;;
65275;SDS011;51875;49.994;14.052;2022-09-03T00:11:11;3.40;;;2.50;;
65275;SDS011;51875;49.994;14.052;2022-09-03T00:12:31;3.95;;;2.42;;
65275;SDS011;51875;49.994;14.052;2022-09-03T00:15:34;3.00;;;2.20;;
65275;SDS011;51875;49.994;14.052;2022-09-03T00:16:54;3.53;;;2.58;;
65275;SDS011;51875;49.994;14.052;2022-09-03T00:18:14;2.50;;;2.20;;
65275;SDS011;51875;49.994;14.052;2022-09-03T00:19:36;3.13;;;2.05;;
65275;SDS011;51875;49.994;14.052;2022-09-03T00:21:17;5.05;;;2.05;;
65275;SDS011;51875;49.994;14.052;2022-09-03T00:22:56;2.63;;;1.80;;
65275;SDS011;51875;49.994;14.052;2022-09-03T00:24:15;2.85;;;2.10;;
65275;SDS011;51875;49.994;14.052;2022-09-03T00:26:59;4.32;;;2.70;;
65275;SDS011;51875;49.994;14.052;2022-09-03T00:28:28;2.80;;;2.30;;
65275;SDS011;51875;49.994;14.052;2022-09-03T00:32:42;2.33;;;2.13;;
65275;SDS011;51875;49.994;14.052;2022-09-03T00:34:11;6.65;;;2.15;;
65275;SDS011;51875;49.994;14.052;2022-09-03T00:35:42;2.22;;;1.90;;
65275;SDS011;51875;49.994;14.052;2022-09-03T00:37:03;2.78;;;2.30;;
65275;SDS011;51875;49.994;14.052;2022-09-03T00:38:19;2.90;;;2.30;;
65275;SDS011;51875;49.994;14.052;2022-09-03T00:39:36;2.50;;;2.10;;
65275;SDS011;51875;49.994;14.052;2022-09-03T00:40:55;2.50;;;2.10;;
65275;SDS011;51875;49.994;14.052;2022-09-03T00:42:47;3.10;;;2.10;;
65275;SDS011;51875;49.994;14.052;2022-09-03T00:44:24;2.80;;;2.20;;
65275;SDS011;51875;49.994;14.052;2022-09-03T00:46:08;3.13;;;2.55;;
65275;SDS011;51875;49.994;14.052;2022-09-03T00:50:49;2.53;;;2.20;;
65275;SDS011;51875;49.994;14.052;2022-09-03T00:52:44;3.13;;;2.58;;
65275;SDS011;51875;49.994;14.052;2022-09-03T00:54:12;3.45;;;2.50;;
65275;SDS011;51875;49.994;14.052;2022-09-03T00:55:47;3.05;;;2.45;;
65275;SDS011;51875;49.994;14.052;2022-09-03T01:01:49;2.85;;;2.35;;
65275;SDS011;51875;49.994;14.052;2022-09-03T01:03:22;3.45;;;2.38;;
65275;SDS011;51875;49.994;14.052;2022-09-03T01:07:39;3.75;;;2.65;;
65275;SDS011;51875;49.994;14.052;2022-09-03T01:09:08;3.35;;;2.15;;
65275;SDS011;51875;49.994;14.052;2022-09-03T01:15:29;3.50;;;2.50;;
65275;SDS011;51875;49.994;14.052;2022-09-03T01:25:48;2.70;;;2.35;;
65275;SDS011;51875;49.994;14.052;2022-09-03T01:27:35;3.58;;;2.45;;
65275;SDS011;51875;49.994;14.052;2022-09-03T01:29:02;4.72;;;2.60;;
65275;SDS011;51875;49.994;14.052;2022-09-03T01:30:26;3.00;;;2.65;;
65275;SDS011;51875;49.994;14.052;2022-09-03T01:34:56;4.07;;;2.45;;
65275;SDS011;51875;49.994;14.052;2022-09-03T01:38:00;3.17;;;2.40;;
65275;SDS011;51875;49.994;14.052;2022-09-03T01:42:12;3.08;;;2.25;;
65275;SDS011;51875;49.994;14.052;2022-09-03T01:44:34;3.58;;;2.28;;
65275;SDS011;51875;49.994;14.052;2022-09-03T01:45:53;3.28;;;2.35;;
65275;SDS011;51875;49.994;14.052;2022-09-03T01:47:21;2.38;;;2.17;;
65275;SDS011;51875;49.994;14.052;2022-09-03T01:49:01;2.45;;;2.25;;
65275;SDS011;51875;49.994;14.052;2022-09-03T01:55:31;3.45;;;2.15;;
65275;SDS011;51875;49.994;14.052;2022-09-03T01:58:27;4.45;;;2.60;;
65275;SDS011;51875;49.994;14.052;2022-09-03T02:01:21;4.50;;;2.70;;
65275;SDS011;51875;49.994;14.052;2022-09-03T02:02:44;3.38;;;2.45;;
65275;SDS011;51875;49.994;14.052;2022-09-03T02:04:18;3.20;;;2.60;;
65275;SDS011;51875;49.994;14.052;2022-09-03T02:05:37;3.67;;;2.45;;
65275;SDS011;51875;49.994;14.052;2022-09-03T02:06:54;3.38;;;2.60;;
65275;SDS011;51875;49.994;14.052;2022-09-03T02:08:11;2.78;;;2.58;;
65275;SDS011;51875;49.994;14.052;2022-09-03T02:09:27;4.07;;;2.65;;
65275;SDS011;51875;49.994;14.052;2022-09-03T02:12:07;2.70;;;2.30;;
65275;SDS011;51875;49.994;14.052;2022-09-03T02:13:26;3.20;;;2.58;;
65275;SDS011;51875;49.994;14.052;2022-09-03T02:14:46;5.30;;;2.63;;
65275;SDS011;51875;49.994;14.052;2022-09-03T02:16:02;2.60;;;2.40;;
65275;SDS011;51875;49.994;14.052;2022-09-03T02:17:27;3.10;;;2.60;;
65275;SDS011;51875;49.994;14.052;2022-09-03T02:18:50;3.75;;;2.30;;
65275;SDS011;51875;49.994;14.052;2022-09-03T02:20:09;2.80;;;2.08;;
65275;SDS011;51875;49.994;14.052;2022-09-03T02:21:32;3.65;;;2.40;;
65275;SDS011;51875;49.994;14.052;2022-09-03T02:22:51;2.80;;;2.10;;
65275;SDS011;51875;49.994;14.052;2022-09-03T02:24:08;3.55;;;2.38;;
65275;SDS011;51875;49.994;14.052;2022-09-03T02:25:27;3.92;;;2.30;;
65275;SDS011;51875;49.994;14.052;2022-09-03T02:26:46;3.00;;;2.30;;
65275;SDS011;51875;49.994;14.052;2022-09-03T02:28:02;3.97;;;2.20;;
65275;SDS011;51875;49.994;14.052;2022-09-03T02:29:20;2.90;;;2.58;;
65275;SDS011;51875;49.994;14.052;2022-09-03T02:30:36;4.72;;;2.40;;
65275;SDS011;51875;49.994;14.052;2022-09-03T02:31:51;3.13;;;2.28;;
65275;SDS011;51875;49.994;14.052;2022-09-03T02:33:07;2.50;;;2.20;;
65275;SDS011;51875;49.994;14.052;2022-09-03T02:34:23;2.13;;;1.92;;
65275;SDS011;51875;49.994;14.052;2022-09-03T02:35:39;3.53;;;2.08;;
65275;SDS011;51875;49.994;14.052;2022-09-03T02:36:55;2.85;;;2.20;;
65275;SDS011;51875;49.994;14.052;2022-09-03T02:38:18;2.90;;;2.40;;
65275;SDS011;51875;49.994;14.052;2022-09-03T02:39:36;2.45;;;2.05;;
65275;SDS011;51875;49.994;14.052;2022-09-03T02:40:53;3.08;;;2.13;;
65275;SDS011;51875;49.994;14.052;2022-09-03T02:42:10;3.15;;;2.13;;
65275;SDS011;51875;49.994;14.052;2022-09-03T02:45:35;2.92;;;2.20;;
65275;SDS011;51875;49.994;14.052;2022-09-03T02:46:45;3.05;;;2.33;;
65275;SDS011;51875;49.994;14.052;2022-09-03T02:49:23;3.03;;;2.10;;
65275;SDS011;51875;49.994;14.052;2022-09-03T02:50:39;4.90;;;2.05;;
65275;SDS011;51875;49.994;14.052;2022-09-03T02:51:57;3.20;;;2.28;;
65275;SDS011;51875;49.994;14.052;2022-09-03T02:53:15;3.25;;;2.42;;
65275;SDS011;51875;49.994;14.052;2022-09-03T02:54:31;3.13;;;2.45;;
65275;SDS011;51875;49.994;14.052;2022-09-03T02:55:50;3.17;;;2.47;;
65275;SDS011;51875;49.994;14.052;2022-09-03T02:57:09;3.60;;;2.65;;
65275;SDS011;51875;49.994;14.052;2022-09-03T02:58:28;5.53;;;2.47;;
65275;SDS011;51875;49.994;14.052;2022-09-03T02:59:45;3.67;;;2.88;;
65275;SDS011;51875;49.994;14.052;2022-09-03T03:01:01;4.78;;;2.85;;
65275;SDS011;51875;49.994;14.052;2022-09-03T03:02:16;3.40;;;2.50;;
65275;SDS011;51875;49.994;14.052;2022-09-03T03:03:32;4.15;;;2.40;;
65275;SDS011;51875;49.994;14.052;2022-09-03T03:04:48;3.20;;;2.40;;
65275;SDS011;51875;49.994;14.052;2022-09-03T03:06:03;3.17;;;2.60;;
65275;SDS011;51875;49.994;14.052;2022-09-03T03:07:20;3.22;;;2.80;;
65275;SDS011;51875;49.994;14.052;2022-09-03T03:08:36;2.92;;;2.60;;
65275;SDS011;51875;49.994;14.052;2022-09-03T03:09:51;3.97;;;2.40;;
65275;SDS011;51875;49.994;14.052;2022-09-03T03:11:07;5.15;;;2.40;;
65275;SDS011;51875;49.994;14.052;2022-09-03T03:12:23;2.70;;;2.47;;
65275;SDS011;51875;49.994;14.052;2022-09-03T03:13:40;4.20;;;2.30;;
65275;SDS011;51875;49.994;14.052;2022-09-03T03:14:55;4.20;;;2.58;;
65275;SDS011;51875;49.994;14.052;2022-09-03T03:16:11;4.05;;;2.50;;
65275;SDS011;51875;49.994;14.052;2022-09-03T03:17:28;2.85;;;2.38;;
65275;SDS011;51875;49.994;14.052;2022-09-03T03:18:43;3.00;;;2.22;;
65275;SDS011;51875;49.994;14.052;2022-09-03T03:20:02;3.30;;;2.75;;
65275;SDS011;51875;49.994;14.052;2022-09-03T03:21:18;3.05;;;2.28;;
65275;SDS011;51875;49.994;14.052;2022-09-03T03:22:33;3.17;;;2.17;;
65275;SDS011;51875;49.994;14.052;2022-09-03T03:23:49;2.60;;;2.22;;
65275;SDS011;51875;49.994;14.052;2022-09-03T03:25:05;5.63;;;2.60;;
65275;SDS011;51875;49.994;14.052;2022-09-03T03:26:21;2.78;;;2.30;;
65275;SDS011;51875;49.994;14.052;2022-09-03T03:27:37;2.45;;;2.13;;
65275;SDS011;51875;49.994;14.052;2022-09-03T03:28:57;3.70;;;2.50;;
65275;SDS011;51875;49.994;14.052;2022-09-03T03:30:13;3.38;;;2.40;;
65275;SDS011;51875;49.994;14.052;2022-09-03T03:31:29;2.97;;;2.38;;
65275;SDS011;51875;49.994;14.052;2022-09-03T03:32:45;2.75;;;2.20;;
65275;SDS011;51875;49.994;14.052;2022-09-03T03:34:02;3.50;;;2.75;;
65275;SDS011;51875;49.994;14.052;2022-09-03T03:35:17;3.08;;;2.50;;
65275;SDS011;51875;49.994;14.052;2022-09-03T03:36:33;5.82;;;2.30;;
65275;SDS011;51875;49.994;14.052;2022-09-03T03:37:50;3.60;;;2.45;;
65275;SDS011;51875;49.994;14.052;2022-09-03T03:39:06;3.30;;;2.47;;
65275;SDS011;51875;49.994;14.052;2022-09-03T03:40:21;3.20;;;2.85;;
65275;SDS011;51875;49.994;14.052;2022-09-03T03:41:37;3.53;;;2.50;;
65275;SDS011;51875;49.994;14.052;2022-09-03T03:42:52;3.67;;;2.38;;
65275;SDS011;51875;49.994;14.052;2022-09-03T03:44:09;4.18;;;2.97;;
65275;SDS011;51875;49.994;14.052;2022-09-03T03:45:25;2.45;;;2.25;;
65275;SDS011;51875;49.994;14.052;2022-09-03T03:46:40;2.70;;;2.22;;
65275;SDS011;51875;49.994;14.052;2022-09-03T03:47:56;3.30;;;2.50;;
65275;SDS011;51875;49.994;14.052;2022-09-03T03:49:13;2.90;;;2.25;;
65275;SDS011;51875;49.994;14.052;2022-09-03T03:50:29;4.32;;;2.85;;
65275;SDS011;51875;49.994;14.052;2022-09-03T03:51:45;6.03;;;2.60;;
65275;SDS011;51875;49.994;14.052;2022-09-03T03:53:01;2.97;;;2.58;;
65275;SDS011;51875;49.994;14.052;2022-09-03T03:54:17;3.65;;;2.70;;
65275;SDS011;51875;49.994;14.052;2022-09-03T03:55:33;3.75;;;2.35;;
65275;SDS011;51875;49.994;14.052;2022-09-03T03:56:49;3.75;;;2.20;;
65275;SDS011;51875;49.994;14.052;2022-09-03T03:58:04;3.58;;;2.40;;
65275;SDS011;51875;49.994;14.052;2022-09-03T03:59:20;3.50;;;2.35;;
65275;SDS011;51875;49.994;14.052;2022-09-03T04:00:36;3.28;;;2.42;;
65275;SDS011;51875;49.994;14.052;2022-09-03T04:01:55;2.78;;;2.40;;
65275;SDS011;51875;49.994;14.052;2022-09-03T04:03:10;3.30;;;2.53;;
65275;SDS011;51875;49.994;14.052;2022-09-03T04:04:26;3.53;;;2.30;;
65275;SDS011;51875;49.994;14.052;2022-09-03T04:05:42;3.85;;;2.70;;
65275;SDS011;51875;49.994;14.052;2022-09-03T04:06:57;3.75;;;2.60;;
65275;SDS011;51875;49.994;14.052;2022-09-03T04:08:13;2.67;;;2.28;;
65275;SDS011;51875;49.994;14.052;2022-09-03T04:09:29;3.60;;;2.30;;
65275;SDS011;51875;49.994;14.052;2022-09-03T04:10:45;4.75;;;2.60;;
65275;SDS011;51875;49.994;14.052;2022-09-03T04:12:01;4.22;;;2.78;;
65275;SDS011;51875;49.994;14.052;2022-09-03T04:13:17;6.45;;;2.67;;
65275;SDS011;51875;49.994;14.052;2022-09-03T04:14:33;2.63;;;2.42;;
65275;SDS011;51875;49.994;14.052;2022-09-03T04:15:49;2.97;;;2.35;;
65275;SDS011;51875;49.994;14.052;2022-09-03T04:17:05;2.92;;;2.30;;
65275;SDS011;51875;49.994;14.052;2022-09-03T04:18:21;2.97;;;2.67;;
65275;SDS011;51875;49.994;14.052;2022-09-03T04:19:37;2.95;;;2.40;;
65275;SDS011;51875;49.994;14.052;2022-09-03T04:20:52;4.15;;;2.63;;
65275;SDS011;51875;49.994;14.052;2022-09-03T04:22:12;3.95;;;2.50;;
65275;SDS011;51875;49.994;14.052;2022-09-03T04:23:30;2.67;;;2.30;;
65275;SDS011;51875;49.994;14.052;2022-09-03T04:24:47;3.95;;;2.63;;
65275;SDS011;51875;49.994;14.052;2022-09-03T04:26:02;2.78;;;2.58;;
65275;SDS011;51875;49.994;14.052;2022-09-03T04:27:19;3.45;;;2.25;;
65275;SDS011;51875;49.994;14.052;2022-09-03T04:28:34;3.50;;;2.50;;
65275;SDS011;51875;49.994;14.052;2022-09-03T04:29:51;3.08;;;2.60;;
65275;SDS011;51875;49.994;14.052;2022-09-03T04:31:07;4.32;;;2.45;;
65275;SDS011;51875;49.994;14.052;2022-09-03T04:32:24;3.80;;;2.50;;
65275;SDS011;51875;49.994;14.052;2022-09-03T04:34:08;2.67;;;2.17;;
65275;SDS011;51875;49.994;14.052;2022-09-03T04:35:25;2.78;;;2.45;;
65275;SDS011;51875;49.994;14.052;2022-09-03T04:36:48;4.07;;;2.80;;
65275;SDS011;51875;49.994;14.052;2022-09-03T04:38:03;4.38;;;2.60;;
65275;SDS011;51875;49.994;14.052;2022-09-03T04:39:19;4.55;;;2.90;;
65275;SDS011;51875;49.994;14.052;2022-09-03T04:40:35;4.28;;;3.10;;
65275;SDS011;51875;49.994;14.052;2022-09-03T04:41:51;6.13;;;2.78;;
65275;SDS011;51875;49.994;14.052;2022-09-03T04:43:07;3.05;;;2.72;;
65275;SDS011;51875;49.994;14.052;2022-09-03T04:44:22;4.85;;;2.78;;
65275;SDS011;51875;49.994;14.052;2022-09-03T04:45:38;4.28;;;2.55;;
65275;SDS011;51875;49.994;14.052;2022-09-03T04:46:53;3.08;;;2.70;;
65275;SDS011;51875;49.994;14.052;2022-09-03T04:48:09;3.00;;;2.70;;
65275;SDS011;51875;49.994;14.052;2022-09-03T04:49:25;3.20;;;2.83;;
65275;SDS011;51875;49.994;14.052;2022-09-03T04:50:41;3.35;;;2.72;;
65275;SDS011;51875;49.994;14.052;2022-09-03T04:51:57;6.97;;;2.92;;
65275;SDS011;51875;49.994;14.052;2022-09-03T04:53:12;7.72;;;2.85;;
65275;SDS011;51875;49.994;14.052;2022-09-03T04:54:28;4.03;;;2.78;;
65275;SDS011;51875;49.994;14.052;2022-09-03T04:55:44;3.78;;;2.88;;
65275;SDS011;51875;49.994;14.052;2022-09-03T04:57:00;4.45;;;2.70;;
65275;SDS011;51875;49.994;14.052;2022-09-03T04:58:15;4.65;;;3.00;;
65275;SDS011;51875;49.994;14.052;2022-09-03T04:59:31;3.28;;;2.60;;
65275;SDS011;51875;49.994;14.052;2022-09-03T05:00:46;3.10;;;2.67;;
65275;SDS011;51875;49.994;14.052;2022-09-03T05:02:02;5.10;;;2.90;;
65275;SDS011;51875;49.994;14.052;2022-09-03T05:03:17;5.78;;;3.53;;
65275;SDS011;51875;49.994;14.052;2022-09-03T05:04:33;4.78;;;3.10;;
65275;SDS011;51875;49.994;14.052;2022-09-03T05:05:55;4.57;;;3.35;;
65275;SDS011;51875;49.994;14.052;2022-09-03T05:07:11;3.40;;;3.10;;
65275;SDS011;51875;49.994;14.052;2022-09-03T05:08:26;3.60;;;2.95;;
65275;SDS011;51875;49.994;14.052;2022-09-03T05:09:42;4.75;;;3.00;;
65275;SDS011;51875;49.994;14.052;2022-09-03T05:11:00;4.68;;;3.47;;
65275;SDS011;51875;49.994;14.052;2022-09-03T05:12:17;3.70;;;2.85;;
65275;SDS011;51875;49.994;14.052;2022-09-03T05:13:32;4.32;;;3.17;;
65275;SDS011;51875;49.994;14.052;2022-09-03T05:14:49;2.80;;;2.60;;
65275;SDS011;51875;49.994;14.052;2022-09-03T05:16:06;4.05;;;3.10;;
65275;SDS011;51875;49.994;14.052;2022-09-03T05:17:23;3.72;;;3.17;;
65275;SDS011;51875;49.994;14.052;2022-09-03T05:18:38;5.63;;;3.10;;
65275;SDS011;51875;49.994;14.052;2022-09-03T05:19:56;3.78;;;2.92;;
65275;SDS011;51875;49.994;14.052;2022-09-03T05:21:16;4.00;;;2.97;;
65275;SDS011;51875;49.994;14.052;2022-09-03T05:22:33;4.18;;;2.90;;
65275;SDS011;51875;49.994;14.052;2022-09-03T05:23:49;4.30;;;3.08;;
65275;SDS011;51875;49.994;14.052;2022-09-03T05:25:06;3.42;;;2.92;;
65275;SDS011;51875;49.994;14.052;2022-09-03T05:26:24;5.32;;;3.03;;
65275;SDS011;51875;49.994;14.052;2022-09-03T05:27:41;3.38;;;3.08;;
65275;SDS011;51875;49.994;14.052;2022-09-03T05:28:58;4.22;;;3.15;;
65275;SDS011;51875;49.994;14.052;2022-09-03T05:30:15;4.07;;;2.88;;
65275;SDS011;51875;49.994;14.052;2022-09-03T05:31:31;4.93;;;3.10;;
65275;SDS011;51875;49.994;14.052;2022-09-03T05:32:47;3.65;;;3.30;;
65275;SDS011;51875;49.994;14.052;2022-09-03T05:34:03;3.80;;;3.17;;
65275;SDS011;51875;49.994;14.052;2022-09-03T05:35:20;4.30;;;3.17;;
65275;SDS011;51875;49.994;14.052;2022-09-03T05:36:38;3.78;;;3.20;;
65275;SDS011;51875;49.994;14.052;2022-09-03T05:37:54;3.85;;;2.92;;
65275;SDS011;51875;49.994;14.052;2022-09-03T05:39:10;4.00;;;3.25;;
65275;SDS011;51875;49.994;14.052;2022-09-03T05:40:25;4.10;;;3.00;;
65275;SDS011;51875;49.994;14.052;2022-09-03T05:41:41;3.60;;;3.17;;
65275;SDS011;51875;49.994;14.052;2022-09-03T05:42:56;6.00;;;3.40;;
65275;SDS011;51875;49.994;14.052;2022-09-03T05:44:13;4.57;;;3.40;;
65275;SDS011;51875;49.994;14.052;2022-09-03T05:45:29;3.55;;;3.08;;
65275;SDS011;51875;49.994;14.052;2022-09-03T05:46:46;4.88;;;3.13;;
65275;SDS011;51875;49.994;14.052;2022-09-03T05:48:01;4.75;;;3.10;;
65275;SDS011;51875;49.994;14.052;2022-09-03T05:49:17;4.70;;;3.50;;
65275;SDS011;51875;49.994;14.052;2022-09-03T05:50:33;2.95;;;2.65;;
65275;SDS011;51875;49.994;14.052;2022-09-03T05:51:49;4.85;;;3.22;;
65275;SDS011;51875;49.994;14.052;2022-09-03T05:53:04;3.50;;;3.00;;
65275;SDS011;51875;49.994;14.052;2022-09-03T05:54:20;6.05;;;3.50;;
65275;SDS011;51875;49.994;14.052;2022-09-03T05:55:36;6.32;;;2.90;;
65275;SDS011;51875;49.994;14.052;2022-09-03T05:56:52;5.28;;;3.60;;
65275;SDS011;51875;49.994;14.052;2022-09-03T05:58:07;5.05;;;2.83;;
65275;SDS011;51875;49.994;14.052;2022-09-03T05:59:23;4.57;;;2.78;;
65275;SDS011;51875;49.994;14.052;2022-09-03T06:00:38;4.38;;;3.15;;
65275;SDS011;51875;49.994;14.052;2022-09-03T06:01:54;3.92;;;3.22;;
65275;SDS011;51875;49.994;14.052;2022-09-03T06:03:10;4.47;;;2.90;;
65275;SDS011;51875;49.994;14.052;2022-09-03T06:04:25;4.55;;;3.03;;
65275;SDS011;51875;49.994;14.052;2022-09-03T06:05:48;6.93;;;2.90;;
65275;SDS011;51875;49.994;14.052;2022-09-03T06:07:05;3.35;;;2.85;;
65275;SDS011;51875;49.994;14.052;2022-09-03T06:08:20;3.97;;;3.20;;
65275;SDS011;51875;49.994;14.052;2022-09-03T06:09:36;3.58;;;2.95;;
65275;SDS011;51875;49.994;14.052;2022-09-03T06:10:56;4.05;;;3.25;;
65275;SDS011;51875;49.994;14.052;2022-09-03T06:12:13;5.40;;;3.40;;
65275;SDS011;51875;49.994;14.052;2022-09-03T06:13:29;5.00;;;3.53;;
65275;SDS011;51875;49.994;14.052;2022-09-03T06:14:45;3.33;;;3.03;;
65275;SDS011;51875;49.994;14.052;2022-09-03T06:16:04;4.40;;;3.25;;
65275;SDS011;51875;49.994;14.052;2022-09-03T06:17:21;3.88;;;2.95;;
65275;SDS011;51875;49.994;14.052;2022-09-03T06:18:36;4.35;;;3.30;;
65275;SDS011;51875;49.994;14.052;2022-09-03T06:19:52;4.10;;;3.03;;
65275;SDS011;51875;49.994;14.052;2022-09-03T06:21:07;4.47;;;3.33;;
65275;SDS011;51875;49.994;14.052;2022-09-03T06:22:23;8.07;;;3.15;;
65275;SDS011;51875;49.994;14.052;2022-09-03T06:23:42;5.63;;;3.60;;
65275;SDS011;51875;49.994;14.052;2022-09-03T06:24:57;5.00;;;3.45;;
65275;SDS011;51875;49.994;14.052;2022-09-03T06:26:13;5.43;;;3.10;;
65275;SDS011;51875;49.994;14.052;2022-09-03T06:27:29;4.65;;;3.08;;
65275;SDS011;51875;49.994;14.052;2022-09-03T06:28:47;4.57;;;3.20;;
65275;SDS011;51875;49.994;14.052;2022-09-03T06:30:03;3.95;;;2.90;;
65275;SDS011;51875;49.994;14.052;2022-09-03T06:31:24;6.65;;;3.03;;
65275;SDS011;51875;49.994;14.052;2022-09-03T06:32:43;7.05;;;3.20;;
65275;SDS011;51875;49.994;14.052;2022-09-03T06:34:04;4.70;;;3.05;;
65275;SDS011;51875;49.994;14.052;2022-09-03T06:35:20;5.28;;;3.17;;
65275;SDS011;51875;49.994;14.052;2022-09-03T06:36:35;4.00;;;3.30;;
65275;SDS011;51875;49.994;14.052;2022-09-03T06:37:51;5.97;;;3.30;;
65275;SDS011;51875;49.994;14.052;2022-09-03T06:39:07;6.43;;;3.15;;
65275;SDS011;51875;49.994;14.052;2022-09-03T06:40:22;5.55;;;3.35;;
65275;SDS011;51875;49.994;14.052;2022-09-03T06:41:40;5.65;;;3.20;;
65275;SDS011;51875;49.994;14.052;2022-09-03T06:42:56;4.97;;;3.22;;
65275;SDS011;51875;49.994;14.052;2022-09-03T06:44:17;4.00;;;3.10;;
65275;SDS011;51875;49.994;14.052;2022-09-03T06:45:33;4.20;;;3.33;;
65275;SDS011;51875;49.994;14.052;2022-09-03T06:46:48;3.75;;;3.22;;
65275;SDS011;51875;49.994;14.052;2022-09-03T06:48:07;5.13;;;3.13;;
65275;SDS011;51875;49.994;14.052;2022-09-03T06:49:23;6.15;;;3.22;;
65275;SDS011;51875;49.994;14.052;2022-09-03T06:50:40;7.53;;;3.90;;
65275;SDS011;51875;49.994;14.052;2022-09-03T06:51:55;4.68;;;3.17;;
65275;SDS011;51875;49.994;14.052;2022-09-03T06:53:11;4.95;;;3.17;;
65275;SDS011;51875;49.994;14.052;2022-09-03T06:54:26;4.82;;;3.42;;
65275;SDS011;51875;49.994;14.052;2022-09-03T06:55:42;5.30;;;3.20;;
65275;SDS011;51875;49.994;14.052;2022-09-03T06:56:59;5.65;;;2.95;;
65275;SDS011;51875;49.994;14.052;2022-09-03T06:58:15;9.35;;;3.60;;
65275;SDS011;51875;49.994;14.052;2022-09-03T06:59:31;8.05;;;3.60;;
65275;SDS011;51875;49.994;14.052;2022-09-03T07:00:46;3.28;;;2.90;;
65275;SDS011;51875;49.994;14.052;2022-09-03T07:02:03;6.03;;;3.38;;
65275;SDS011;51875;49.994;14.052;2022-09-03T07:03:19;5.63;;;3.05;;
65275;SDS011;51875;49.994;14.052;2022-09-03T07:04:35;3.75;;;2.85;;
65275;SDS011;51875;49.994;14.052;2022-09-03T07:05:51;4.53;;;3.35;;
65275;SDS011;51875;49.994;14.052;2022-09-03T07:07:06;3.75;;;2.97;;
65275;SDS011;51875;49.994;14.052;2022-09-03T07:08:27;4.00;;;2.97;;
65275;SDS011;51875;49.994;14.052;2022-09-03T07:09:44;3.90;;;2.78;;
65275;SDS011;51875;49.994;14.052;2022-09-03T07:11:00;3.65;;;2.80;;
65275;SDS011;51875;49.994;14.052;2022-09-03T07:12:19;6.78;;;2.92;;
65275;SDS011;51875;49.994;14.052;2022-09-03T07:13:35;5.18;;;3.13;;
65275;SDS011;51875;49.994;14.052;2022-09-03T07:14:55;5.90;;;3.03;;
65275;SDS011;51875;49.994;14.052;2022-09-03T07:16:12;4.63;;;3.20;;
65275;SDS011;51875;49.994;14.052;2022-09-03T07:17:29;4.57;;;3.15;;
65275;SDS011;51875;49.994;14.052;2022-09-03T07:18:45;4.22;;;2.70;;
65275;SDS011;51875;49.994;14.052;2022-09-03T07:20:02;3.75;;;2.80;;
65275;SDS011;51875;49.994;14.052;2022-09-03T07:21:21;4.28;;;2.85;;
65275;SDS011;51875;49.994;14.052;2022-09-03T07:22:39;5.28;;;3.15;;
65275;SDS011;51875;49.994;14.052;2022-09-03T07:23:54;8.35;;;2.90;;
65275;SDS011;51875;49.994;14.052;2022-09-03T07:25:11;3.53;;;2.80;;
65275;SDS011;51875;49.994;14.052;2022-09-03T07:26:27;4.30;;;2.83;;
65275;SDS011;51875;49.994;14.052;2022-09-03T07:27:44;5.15;;;3.20;;
65275;SDS011;51875;49.994;14.052;2022-09-03T07:29:01;3.53;;;2.75;;
65275;SDS011;51875;49.994;14.052;2022-09-03T07:30:17;3.88;;;2.60;;
65275;SDS011;51875;49.994;14.052;2022-09-03T07:31:36;4.40;;;3.20;;
65275;SDS011;51875;49.994;14.052;2022-09-03T07:32:53;3.25;;;2.45;;
65275;SDS011;51875;49.994;14.052;2022-09-03T07:34:10;4.75;;;2.75;;
65275;SDS011;51875;49.994;14.052;2022-09-03T07:35:27;4.18;;;2.63;;
65275;SDS011;51875;49.994;14.052;2022-09-03T07:36:44;4.20;;;2.80;;
65275;SDS011;51875;49.994;14.052;2022-09-03T07:38:01;8.02;;;2.88;;
65275;SDS011;51875;49.994;14.052;2022-09-03T07:39:17;5.05;;;2.70;;
65275;SDS011;51875;49.994;14.052;2022-09-03T07:40:33;7.72;;;2.75;;
65275;SDS011;51875;49.994;14.052;2022-09-03T07:41:48;3.70;;;2.40;;
65275;SDS011;51875;49.994;14.052;2022-09-03T07:43:04;4.07;;;2.53;;
65275;SDS011;51875;49.994;14.052;2022-09-03T07:44:20;3.03;;;2.40;;
65275;SDS011;51875;49.994;14.052;2022-09-03T07:45:37;4.65;;;2.45;;
65275;SDS011;51875;49.994;14.052;2022-09-03T07:46:53;5.28;;;2.50;;
65275;SDS011;51875;49.994;14.052;2022-09-03T07:48:09;4.63;;;2.47;;
65275;SDS011;51875;49.994;14.052;2022-09-03T07:49:25;3.38;;;2.03;;
65275;SDS011;51875;49.994;14.052;2022-09-03T07:50:41;4.20;;;2.22;;
65275;SDS011;51875;49.994;14.052;2022-09-03T07:51:56;4.20;;;2.30;;
65275;SDS011;51875;49.994;14.052;2022-09-03T07:53:11;2.78;;;2.10;;
65275;SDS011;51875;49.994;14.052;2022-09-03T07:54:28;3.80;;;2.08;;
65275;SDS011;51875;49.994;14.052;2022-09-03T07:55:43;2.20;;;2.00;;
65275;SDS011;51875;49.994;14.052;2022-09-03T07:56:59;2.88;;;2.20;;
65275;SDS011;51875;49.994;14.052;2022-09-03T07:58:15;3.60;;;2.22;;
65275;SDS011;51875;49.994;14.052;2022-09-03T07:59:32;5.05;;;2.10;;
65275;SDS011;51875;49.994;14.052;2022-09-03T08:00:48;6.40;;;2.10;;
65275;SDS011;51875;49.994;14.052;2022-09-03T08:02:03;2.58;;;1.88;;
65275;SDS011;51875;49.994;14.052;2022-09-03T08:03:20;4.18;;;2.00;;
65275;SDS011;51875;49.994;14.052;2022-09-03T08:04:35;2.47;;;1.80;;
65275;SDS011;51875;49.994;14.052;2022-09-03T08:05:52;3.83;;;1.90;;
65275;SDS011;51875;49.994;14.052;2022-09-03T08:07:09;3.58;;;2.30;;
65275;SDS011;51875;49.994;14.052;2022-09-03T08:08:24;3.05;;;2.45;;
65275;SDS011;51875;49.994;14.052;2022-09-03T08:09:40;3.90;;;2.05;;
65275;SDS011;51875;49.994;14.052;2022-09-03T08:11:02;4.30;;;2.15;;
65275;SDS011;51875;49.994;14.052;2022-09-03T08:12:21;4.35;;;1.90;;
65275;SDS011;51875;49.994;14.052;2022-09-03T08:13:41;4.10;;;2.10;;
65275;SDS011;51875;49.994;14.052;2022-09-03T08:15:20;3.60;;;2.13;;
65275;SDS011;51875;49.994;14.052;2022-09-03T08:16:40;2.90;;;2.15;;
65275;SDS011;51875;49.994;14.052;2022-09-03T08:18:02;2.75;;;1.92;;
65275;SDS011;51875;49.994;14.052;2022-09-03T08:19:18;4.80;;;2.20;;
65275;SDS011;51875;49.994;14.052;2022-09-03T08:20:35;2.50;;;2.00;;
65275;SDS011;51875;49.994;14.052;2022-09-03T08:21:51;4.03;;;2.35;;
65275;SDS011;51875;49.994;14.052;2022-09-03T08:23:07;3.47;;;2.40;;
65275;SDS011;51875;49.994;14.052;2022-09-03T08:24:22;2.92;;;2.15;;
65275;SDS011;51875;49.994;14.052;2022-09-03T08:25:40;5.90;;;2.33;;
65275;SDS011;51875;49.994;14.052;2022-09-03T08:26:56;3.35;;;2.40;;
65275;SDS011;51875;49.994;14.052;2022-09-03T08:28:12;3.15;;;2.20;;
65275;SDS011;51875;49.994;14.052;2022-09-03T08:29:27;2.92;;;2.42;;
65275;SDS011;51875;49.994;14.052;2022-09-03T08:30:43;3.75;;;2.65;;
65275;SDS011;51875;49.994;14.052;2022-09-03T08:31:58;23.10;;;3.78;;
65275;SDS011;51875;49.994;14.052;2022-09-03T08:33:14;14.25;;;4.00;;
65275;SDS011;51875;49.994;14.052;2022-09-03T08:34:29;10.10;;;2.70;;
65275;SDS011;51875;49.994;14.052;2022-09-03T08:35:51;4.60;;;2.47;;
65275;SDS011;51875;49.994;14.052;2022-09-03T08:37:08;4.72;;;2.97;;